Hovedside
METAR-TAF:

METAR-TAF

Lufthavner :

Halmstad lufthavn

Halmstad, Sverige

breddegrad: 56-41N, lengdegrad: 012-50E, høyde over havet: 30 m

Gjeldene værobservasjon

Denne rapporten ble laget for 27 minutter siden, klokken 15:50 UTC
Vind 6 kt fra Vest, skiftende mellom Vest-sørvest og Nordvest
Temperatur 17°C
Luftfuktighet 72%
Trykk 1020 hPa
Sikt 10 km eller mer

METAR: ESMT 241550Z 27006KT 240V310 9999 NSC 17/12 Q1020

Tid: 18:17 (16:17 UTC)

Varsel

Denne rapporten ble laget for 2 timer og 13 minutter siden, klokken 14:04 UTC
Varsel gyldig fra 24. klokken 15 UTC til 24. klokken 19 UTC
Vind 5 kt fra Vest
Sikt 10 km eller mer
Få skyer i en høyde av 1800 ft

TAF: ESMT 241404Z 2415/2419 26005KT 9999 FEW018

Værobservasjoner og værvarsel for over 4000 flyplasser (METAR- og TAF-rapporter).

Tilgjengelige stasjoner er representert av de røde og gule prikkene på kartet.

Hold musepekeren over prikken for å se navnet på stasjonen.

Klikk så for å se værobservasjoner og -varsler.

For å forandre kartet kan du klikke på den grønne knappen med svart kryss for å zoome inn, på den grønne knappen med strek for å zoome ut, eller på de grønne pilene for å se tilstøtende kart.


METAR-TAF: